Time;durP1;ratioP1;P1;durP2;ratioP2;P2;SDS_P1;SDS_P2;PMS_P1;PMS_P2;Temp;Humidity;BMP_temperature;BMP_pressure;BME280_temperature;BME280_humidity;BME280_pressure;Samples;Min_cycle;Max_cycle;Signal;HPM_P1;HPM_P2
2022/07/17 00:00:28;;;;;;;8.07;6.33;;;14.90;99.90;;;;;;5048017;28;20447;-68
2022/07/17 00:02:55;;;;;;;8.20;5.70;;;14.90;99.90;;;;;;5048620;28;20517;-72
2022/07/17 00:05:23;;;;;;;6.40;5.80;;;14.80;99.90;;;;;;5048804;28;20463;-68
2022/07/17 00:07:50;;;;;;;9.87;7.10;;;14.90;99.90;;;;;;5048399;28;20442;-69
2022/07/17 00:10:17;;;;;;;9.23;6.20;;;14.90;99.90;;;;;;5047997;28;20444;-69
2022/07/17 00:12:44;;;;;;;6.07;5.20;;;14.90;99.90;;;;;;5048423;28;21005;-70
2022/07/17 00:15:12;;;;;;;8.43;6.30;;;14.70;99.90;;;;;;5055957;28;20475;-69
2022/07/17 00:17:39;;;;;;;8.77;6.60;;;14.70;99.90;;;;;;5063338;28;20444;-70
2022/07/17 00:20:07;;;;;;;7.90;6.67;;;14.80;99.90;;;;;;5049977;28;20440;-69
2022/07/17 00:22:35;;;;;;;6.93;6.23;;;14.80;99.90;;;;;;5049195;28;20447;-68
2022/07/17 00:25:03;;;;;;;7.57;6.47;;;14.70;99.90;;;;;;5049621;28;20463;-68
2022/07/17 00:27:30;;;;;;;6.57;5.90;;;14.70;99.90;;;;;;5049782;28;20447;-68
2022/07/17 00:29:56;;;;;;;7.37;6.63;;;14.70;99.90;;;;;;5048687;28;20930;-68
2022/07/17 00:32:24;;;;;;;7.13;6.43;;;14.70;99.90;;;;;;5049250;28;20485;-70
2022/07/17 00:34:51;;;;;;;7.50;6.10;;;14.70;99.90;;;;;;5048469;28;20474;-68
2022/07/17 00:37:18;;;;;;;7.67;6.53;;;14.60;99.90;;;;;;5049396;28;21154;-70
2022/07/17 00:39:46;;;;;;;7.47;6.60;;;14.60;99.90;;;;;;5048536;28;20444;-68
2022/07/17 00:42:13;;;;;;;7.57;5.90;;;14.50;99.90;;;;;;5049005;28;20440;-69
2022/07/17 00:44:41;;;;;;;7.37;6.57;;;14.40;99.90;;;;;;5048477;28;20464;-67
2022/07/17 00:47:13;;;;;;;9.70;6.17;;;14.40;99.90;;;;;;5059879;28;20431;-71
2022/07/17 00:49:40;;;;;;;8.33;7.47;;;14.30;99.90;;;;;;5066293;28;20461;-71
2022/07/17 00:52:08;;;;;;;9.33;6.93;;;14.30;99.90;;;;;;5068465;28;20483;-68
2022/07/17 00:54:37;;;;;;;8.33;7.53;;;14.40;99.90;;;;;;5068502;28;20466;-68
2022/07/17 00:57:08;;;;;;;8.20;7.30;;;14.30;99.90;;;;;;5069137;28;20443;-72
2022/07/17 00:59:36;;;;;;;9.10;8.07;;;14.30;99.90;;;;;;5068469;28;20929;-68
2022/07/17 01:02:05;;;;;;;10.80;7.20;;;14.30;99.90;;;;;;5068441;28;20431;-69
2022/07/17 01:04:32;;;;;;;8.00;7.20;;;14.30;99.90;;;;;;5069985;28;20505;-66
2022/07/17 01:07:00;;;;;;;8.13;7.13;;;14.20;99.90;;;;;;5070197;28;20803;-68
2022/07/17 01:09:27;;;;;;;8.27;7.30;;;14.20;99.90;;;;;;5068994;28;20439;-68
2022/07/17 01:11:54;;;;;;;8.57;7.27;;;14.30;99.90;;;;;;5068632;28;20478;-68
2022/07/17 01:14:23;;;;;;;9.13;7.40;;;14.30;99.90;;;;;;5068662;28;20471;-69
2022/07/17 01:16:51;;;;;;;9.27;8.37;;;14.10;99.90;;;;;;5069819;28;20815;-67
2022/07/17 01:19:18;;;;;;;9.77;8.07;;;14.00;99.90;;;;;;5070142;28;21112;-68
2022/07/17 01:21:48;;;;;;;10.13;7.90;;;14.00;99.90;;;;;;5068686;28;20945;-68
2022/07/17 01:24:16;;;;;;;9.80;8.50;;;14.00;99.90;;;;;;5069728;28;20544;-69
2022/07/17 01:26:43;;;;;;;11.20;10.00;;;13.90;99.90;;;;;;5069416;28;20451;-69
2022/07/17 01:29:11;;;;;;;9.33;8.00;;;13.80;99.90;;;;;;5069735;28;20446;-68
2022/07/17 01:31:39;;;;;;;9.07;8.10;;;13.80;99.90;;;;;;5068769;28;20471;-68
2022/07/17 01:34:08;;;;;;;9.23;7.70;;;13.90;99.90;;;;;;5069546;28;20467;-66
2022/07/17 01:36:35;;;;;;;9.33;7.80;;;13.80;99.90;;;;;;5069542;28;20462;-65
2022/07/17 01:39:03;;;;;;;8.37;7.30;;;13.70;99.90;;;;;;5069618;28;20447;-67
2022/07/17 01:41:30;;;;;;;7.50;6.80;;;13.70;99.90;;;;;;5069101;28;20454;-67
2022/07/17 01:43:58;;;;;;;11.83;8.40;;;13.70;99.90;;;;;;5069511;28;20459;-67
2022/07/17 01:46:25;;;;;;;9.93;8.93;;;13.70;99.90;;;;;;5069321;28;20443;-66
2022/07/17 01:48:52;;;;;;;10.23;9.27;;;13.60;99.90;;;;;;5069423;28;20477;-67
2022/07/17 01:51:19;;;;;;;10.13;8.63;;;13.50;99.90;;;;;;5068738;28;20442;-67
2022/07/17 01:53:45;;;;;;;9.90;8.47;;;13.50;99.90;;;;;;5069303;28;20475;-67
2022/07/17 01:56:13;;;;;;;9.03;8.13;;;13.40;99.90;;;;;;5069159;28;20470;-66
2022/07/17 01:58:40;;;;;;;8.73;7.80;;;13.40;99.90;;;;;;5069328;28;20454;-67
2022/07/17 02:01:07;;;;;;;9.20;7.80;;;13.40;99.90;;;;;;5068595;28;20932;-66
2022/07/17 02:03:34;;;;;;;9.30;8.30;;;13.40;99.90;;;;;;5069617;28;20443;-67
2022/07/17 02:06:00;;;;;;;10.33;9.37;;;13.40;99.90;;;;;;5069061;28;20484;-67
2022/07/17 02:08:27;;;;;;;9.63;8.30;;;13.40;99.90;;;;;;5069478;28;20466;-68
2022/07/17 02:10:54;;;;;;;9.90;7.97;;;13.40;99.90;;;;;;5068481;28;20990;-67
2022/07/17 02:13:22;;;;;;;9.50;8.37;;;13.40;99.90;;;;;;5069177;28;20489;-67
2022/07/17 02:15:49;;;;;;;8.40;7.40;;;13.50;99.90;;;;;;5068869;28;21139;-67
2022/07/17 02:18:16;;;;;;;9.53;8.00;;;13.40;99.90;;;;;;5069473;28;20443;-67
2022/07/17 02:20:46;;;;;;;12.17;7.27;;;13.30;99.90;;;;;;5068447;28;20443;-69
2022/07/17 02:23:13;;;;;;;8.03;7.23;;;13.20;99.90;;;;;;5069540;28;20554;-67
2022/07/17 02:25:40;;;;;;;9.90;7.90;;;13.20;99.90;;;;;;5068747;28;20500;-68
2022/07/17 02:28:06;;;;;;;8.70;7.87;;;13.20;99.90;;;;;;5069082;28;20450;-64
2022/07/17 02:30:35;;;;;;;8.57;7.60;;;13.10;99.90;;;;;;5068433;28;20541;-68
2022/07/17 02:33:01;;;;;;;8.30;7.60;;;13.10;99.90;;;;;;5069248;28;20491;-67
2022/07/17 02:35:28;;;;;;;9.23;8.30;;;13.10;99.90;;;;;;5068806;28;20475;-68
2022/07/17 02:37:55;;;;;;;9.53;8.47;;;13.00;99.90;;;;;;5069185;28;20451;-69
2022/07/17 02:40:22;;;;;;;9.97;8.33;;;13.00;99.90;;;;;;5070992;28;20446;-67
2022/07/17 02:42:49;;;;;;;13.43;8.60;;;13.00;99.90;;;;;;5072372;28;20867;-67
2022/07/17 02:45:15;;;;;;;8.80;7.90;;;13.10;99.90;;;;;;5072483;28;20825;-67
2022/07/17 02:47:44;;;;;;;9.43;8.43;;;13.10;99.90;;;;;;5072688;28;20455;-65
2022/07/17 02:50:11;;;;;;;11.27;9.43;;;13.00;99.90;;;;;;5071917;28;20461;-67
2022/07/17 02:52:38;;;;;;;9.13;8.23;;;13.00;99.90;;;;;;5072429;28;20493;-68
2022/07/17 02:55:05;;;;;;;8.63;7.60;;;12.90;99.90;;;;;;5072147;28;20471;-66
2022/07/17 02:57:33;;;;;;;9.13;8.30;;;12.80;99.90;;;;;;5072559;28;20469;-67
2022/07/17 03:00:00;;;;;;;8.73;7.83;;;12.70;99.90;;;;;;5071889;28;20470;-68
2022/07/17 03:02:26;;;;;;;9.90;7.73;;;12.80;99.90;;;;;;5072511;28;20453;-67
2022/07/17 03:04:55;;;;;;;9.90;8.90;;;12.80;99.90;;;;;;5072082;28;20489;-68
2022/07/17 03:07:21;;;;;;;9.27;8.27;;;12.80;99.90;;;;;;5072245;28;20450;-68
2022/07/17 03:09:48;;;;;;;9.67;8.77;;;12.70;99.90;;;;;;5071667;28;20447;-70
2022/07/17 03:12:15;;;;;;;9.27;8.27;;;12.60;99.90;;;;;;5072351;28;21007;-67
2022/07/17 03:14:42;;;;;;;9.00;8.10;;;12.60;99.90;;;;;;5072356;28;20469;-67
2022/07/17 03:17:09;;;;;;;10.13;8.97;;;12.60;99.90;;;;;;5072299;28;20451;-68
2022/07/17 03:19:36;;;;;;;8.50;7.70;;;12.60;99.90;;;;;;5072058;28;20443;-68
2022/07/17 03:22:04;;;;;;;9.30;8.37;;;12.60;99.90;;;;;;5071313;28;20953;-65
2022/07/17 03:24:31;;;;;;;12.07;8.90;;;12.50;99.90;;;;;;5071741;28;20533;-67
2022/07/17 03:26:58;;;;;;;9.90;8.50;;;12.60;99.90;;;;;;5072197;28;20443;-66
2022/07/17 03:29:25;;;;;;;8.43;7.63;;;12.50;99.90;;;;;;5071954;28;20454;-68
2022/07/17 03:31:52;;;;;;;8.77;7.87;;;12.50;99.90;;;;;;5071236;28;20451;-68
2022/07/17 03:34:19;;;;;;;9.57;8.53;;;12.40;99.90;;;;;;5071344;28;20471;-69
2022/07/17 03:36:46;;;;;;;9.67;8.67;;;12.40;99.90;;;;;;5071582;28;20451;-66
2022/07/17 03:39:14;;;;;;;10.87;8.97;;;12.40;99.90;;;;;;5071648;28;20496;-66
2022/07/17 03:41:42;;;;;;;10.33;8.03;;;12.40;99.90;;;;;;5071008;28;20467;-67
2022/07/17 03:44:09;;;;;;;8.57;7.70;;;12.40;99.90;;;;;;5071558;28;20857;-70
2022/07/17 03:46:36;;;;;;;10.47;8.40;;;12.50;99.90;;;;;;5071352;28;20439;-66
2022/07/17 03:49:03;;;;;;;10.07;8.77;;;12.40;99.90;;;;;;5071525;28;20447;-67
2022/07/17 03:51:30;;;;;;;11.27;10.10;;;12.40;99.90;;;;;;5070469;28;20469;-67
2022/07/17 03:53:57;;;;;;;10.40;9.30;;;12.30;99.90;;;;;;5071539;28;20495;-67
2022/07/17 03:56:25;;;;;;;9.43;8.43;;;12.30;99.90;;;;;;5071199;28;20451;-67
2022/07/17 03:58:52;;;;;;;10.73;8.73;;;12.40;99.90;;;;;;5071627;28;20450;-68
2022/07/17 04:01:18;;;;;;;9.27;8.40;;;12.50;99.90;;;;;;5070374;28;20456;-68
2022/07/17 04:03:45;;;;;;;9.57;8.67;;;12.40;99.90;;;;;;5071326;28;20459;-67
2022/07/17 04:06:12;;;;;;;9.83;8.87;;;12.50;99.90;;;;;;5071144;28;20461;-67
2022/07/17 04:08:39;;;;;;;10.47;9.07;;;12.50;99.90;;;;;;5071625;28;20458;-67
2022/07/17 04:11:06;;;;;;;8.97;8.07;;;12.50;99.90;;;;;;5070593;28;20447;-71
2022/07/17 04:13:34;;;;;;;12.90;9.40;;;12.40;99.90;;;;;;5071351;28;20471;-67
2022/07/17 04:16:01;;;;;;;10.83;9.73;;;12.40;99.90;;;;;;5071044;28;20453;-67
2022/07/17 04:18:29;;;;;;;9.83;8.83;;;12.40;99.90;;;;;;5071344;28;20445;-66
2022/07/17 04:21:00;;;;;;;10.40;9.40;;;12.40;99.90;;;;;;5070508;28;20439;-68
2022/07/17 04:23:27;;;;;;;9.53;8.63;;;12.60;99.90;;;;;;5071447;28;20466;-68
2022/07/17 04:25:55;;;;;;;9.23;8.33;;;12.50;99.90;;;;;;5070764;28;20451;-67
2022/07/17 04:28:22;;;;;;;9.23;8.43;;;12.50;99.90;;;;;;5071082;28;20454;-67
2022/07/17 04:30:50;;;;;;;9.03;8.23;;;12.60;99.90;;;;;;5069906;28;20478;-68
2022/07/17 04:33:17;;;;;;;10.90;9.40;;;12.70;99.90;;;;;;5070697;28;20483;-68
2022/07/17 04:35:45;;;;;;;9.20;8.27;;;12.80;99.90;;;;;;5070341;28;20457;-67
2022/07/17 04:38:12;;;;;;;13.10;8.97;;;12.90;99.90;;;;;;5070487;28;20455;-66
2022/07/17 04:40:40;;;;;;;9.77;8.87;;;12.90;99.90;;;;;;5069881;28;20450;-68
2022/07/17 04:43:07;;;;;;;10.07;8.87;;;12.90;99.90;;;;;;5070433;28;20446;-69
2022/07/17 04:45:34;;;;;;;9.30;8.47;;;12.90;99.90;;;;;;5070154;28;20478;-67
2022/07/17 04:48:03;;;;;;;9.10;8.20;;;13.00;99.90;;;;;;5070614;28;20932;-67
2022/07/17 04:50:30;;;;;;;9.60;8.70;;;13.10;99.90;;;;;;5069725;28;20469;-67
2022/07/17 04:52:57;;;;;;;9.50;8.30;;;13.20;99.90;;;;;;5070338;28;20852;-67
2022/07/17 04:55:24;;;;;;;10.10;9.10;;;13.30;99.90;;;;;;5070042;28;20467;-67
2022/07/17 04:57:51;;;;;;;9.47;8.57;;;13.40;99.90;;;;;;5070163;28;20443;-67
2022/07/17 05:00:18;;;;;;;9.13;8.20;;;13.50;99.90;;;;;;5069582;28;20447;-67
2022/07/17 05:02:45;;;;;;;9.83;8.83;;;13.50;99.90;;;;;;5069790;28;20447;-67
2022/07/17 05:05:13;;;;;;;12.40;10.10;;;13.40;99.90;;;;;;5069529;28;20463;-68
2022/07/17 05:07:40;;;;;;;10.57;9.57;;;13.40;99.90;;;;;;5070030;28;20443;-69
2022/07/17 05:10:08;;;;;;;11.23;8.77;;;13.50;99.90;;;;;;5069033;28;20450;-66
2022/07/17 05:12:35;;;;;;;10.10;9.10;;;13.50;99.90;;;;;;5069768;28;20447;-68
2022/07/17 05:15:02;;;;;;;10.63;8.43;;;13.50;99.90;;;;;;5069715;28;20818;-67
2022/07/17 05:17:29;;;;;;;9.13;8.10;;;13.60;99.90;;;;;;5070081;28;20979;-67
2022/07/17 05:19:55;;;;;;;8.47;7.67;;;13.80;99.90;;;;;;5069188;28;20447;-67
2022/07/17 05:22:23;;;;;;;9.87;8.90;;;13.90;99.90;;;;;;5069985;28;20443;-68
2022/07/17 05:24:51;;;;;;;8.47;7.67;;;13.90;99.90;;;;;;5069325;28;20471;-67
2022/07/17 05:27:17;;;;;;;10.40;9.40;;;13.90;99.90;;;;;;5069791;28;21032;-67
2022/07/17 05:29:44;;;;;;;11.83;8.30;;;14.00;99.90;;;;;;5069567;28;20451;-70
2022/07/17 05:32:11;;;;;;;8.80;8.00;;;14.10;99.90;;;;;;5069339;28;20443;-69
2022/07/17 05:34:38;;;;;;;7.50;6.90;;;14.20;99.90;;;;;;5069506;28;20486;-67
2022/07/17 05:37:04;;;;;;;9.30;8.27;;;14.40;99.90;;;;;;5069577;28;20455;-68
2022/07/17 05:39:32;;;;;;;9.40;8.50;;;14.40;99.90;;;;;;5069675;28;20941;-69
2022/07/17 05:41:59;;;;;;;8.60;7.73;;;14.50;99.90;;;;;;5069105;28;20453;-69
2022/07/17 05:44:26;;;;;;;8.73;7.80;;;14.50;99.90;;;;;;5069581;28;20983;-67
2022/07/17 05:46:53;;;;;;;7.70;7.00;;;14.70;99.90;;;;;;5069432;28;20450;-65
2022/07/17 05:49:20;;;;;;;8.07;7.37;;;14.80;99.90;;;;;;5069573;28;20451;-67
2022/07/17 05:51:47;;;;;;;8.07;7.27;;;14.80;99.90;;;;;;5068683;28;20439;-68
2022/07/17 05:54:13;;;;;;;7.90;7.13;;;14.90;99.90;;;;;;5069110;28;20490;-70
2022/07/17 05:56:41;;;;;;;7.37;6.60;;;15.10;99.90;;;;;;5069505;28;20483;-68
2022/07/17 05:59:08;;;;;;;8.33;7.53;;;15.10;99.90;;;;;;5069616;28;20953;-68
2022/07/17 06:01:35;;;;;;;7.63;6.93;;;15.20;99.90;;;;;;5068670;28;20949;-68
2022/07/17 06:04:02;;;;;;;8.37;6.80;;;15.30;99.90;;;;;;5069305;28;20456;-67
2022/07/17 06:06:29;;;;;;;7.17;6.57;;;15.30;99.90;;;;;;5069099;28;20451;-68
2022/07/17 06:08:55;;;;;;;7.93;7.23;;;15.50;99.90;;;;;;5069465;28;20446;-68
2022/07/17 06:11:22;;;;;;;8.13;7.43;;;15.50;99.90;;;;;;5068926;28;20455;-68
2022/07/17 06:13:50;;;;;;;11.93;7.70;;;15.70;99.90;;;;;;5071076;28;20516;-68
2022/07/17 06:16:17;;;;;;;9.70;8.13;;;15.80;99.90;;;;;;5073148;28;20442;-67
2022/07/17 06:18:44;;;;;;;13.77;12.57;;;16.00;99.90;;;;;;5073228;28;20454;-67
2022/07/17 06:21:11;;;;;;;13.83;12.67;;;16.10;99.90;;;;;;5072559;28;20526;-68
2022/07/17 06:23:37;;;;;;;12.63;11.53;;;16.10;99.90;;;;;;5074071;28;20453;-68
2022/07/17 06:26:04;;;;;;;9.17;7.93;;;16.30;99.90;;;;;;5073185;28;20445;-62
2022/07/17 06:28:32;;;;;;;10.73;7.97;;;16.50;99.90;;;;;;5073180;28;20453;-65
2022/07/17 06:31:00;;;;;;;7.37;6.67;;;16.60;99.90;;;;;;5072423;28;20457;-66
2022/07/17 06:33:27;;;;;;;7.17;6.40;;;16.70;99.90;;;;;;5072894;28;20474;-66
2022/07/17 06:35:54;;;;;;;7.17;6.53;;;16.90;99.90;;;;;;5072375;28;20451;-66
2022/07/17 06:38:22;;;;;;;6.70;5.93;;;17.10;99.90;;;;;;5073165;28;20451;-66
2022/07/17 06:40:49;;;;;;;7.40;5.77;;;17.20;99.90;;;;;;5072072;28;20451;-66
2022/07/17 06:43:16;;;;;;;6.00;5.40;;;17.30;99.90;;;;;;5073031;28;20443;-66
2022/07/17 06:45:43;;;;;;;8.30;5.03;;;17.40;99.90;;;;;;5072390;28;20470;-66
2022/07/17 06:48:11;;;;;;;5.20;4.70;;;17.50;99.90;;;;;;5072705;28;20447;-66
2022/07/17 06:50:38;;;;;;;6.10;5.37;;;17.60;99.90;;;;;;5072059;28;20455;-66
2022/07/17 06:53:05;;;;;;;5.33;4.67;;;17.70;99.90;;;;;;5072921;28;20450;-66
2022/07/17 06:55:32;;;;;;;5.67;5.10;;;17.80;99.90;;;;;;5067615;28;20475;-65
2022/07/17 06:57:59;;;;;;;5.67;4.33;;;17.90;99.90;;;;;;5056013;28;20818;-66
2022/07/17 07:00:26;;;;;;;5.07;4.20;;;18.00;99.90;;;;;;5052228;28;20824;-65
2022/07/17 07:02:52;;;;;;;5.17;4.50;;;18.10;99.90;;;;;;5052870;28;20450;-69
2022/07/17 07:05:21;;;;;;;5.20;4.70;;;18.20;99.90;;;;;;5052584;28;20475;-67
2022/07/17 07:07:47;;;;;;;7.53;4.70;;;18.30;99.90;;;;;;5052505;28;20455;-66
2022/07/17 07:10:14;;;;;;;6.20;4.70;;;18.40;99.90;;;;;;5052080;28;20463;-65
2022/07/17 07:12:41;;;;;;;11.30;4.70;;;18.60;99.90;;;;;;5052437;28;20543;-66
2022/07/17 07:15:09;;;;;;;4.87;4.37;;;18.70;99.90;;;;;;5051978;28;20484;-66
2022/07/17 07:17:37;;;;;;;6.30;4.67;;;18.80;99.90;;;;;;5052015;28;20448;-64
2022/07/17 07:20:05;;;;;;;5.23;4.73;;;18.90;99.90;;;;;;5052256;28;20448;-66
2022/07/17 07:22:33;;;;;;;5.40;4.63;;;19.00;99.90;;;;;;5068151;28;20433;-67
2022/07/17 07:25:00;;;;;;;5.00;3.90;;;19.10;99.90;;;;;;5053611;28;20460;-65
2022/07/17 07:27:27;;;;;;;5.03;3.63;;;19.10;99.90;;;;;;5051999;28;20447;-65
2022/07/17 07:29:53;;;;;;;4.20;3.80;;;19.30;99.90;;;;;;5051501;28;20444;-68
2022/07/17 07:32:21;;;;;;;3.73;3.30;;;19.50;99.90;;;;;;5052111;28;20436;-67
2022/07/17 07:34:48;;;;;;;4.20;3.80;;;19.60;99.90;;;;;;5051483;28;20479;-69
2022/07/17 07:37:14;;;;;;;3.97;3.57;;;19.70;99.90;;;;;;5064730;28;20451;-70
2022/07/17 07:39:43;;;;;;;4.23;3.30;;;19.80;99.90;;;;;;5065438;28;20444;-67
2022/07/17 07:42:11;;;;;;;3.90;3.50;;;19.80;99.90;;;;;;5063152;28;20450;-66
2022/07/17 07:44:37;;;;;;;4.40;3.93;;;20.00;99.90;;;;;;5070494;28;21059;-66
2022/07/17 07:47:04;;;;;;;4.37;3.47;;;20.10;99.90;;;;;;5071326;28;20446;-67
2022/07/17 07:49:31;;;;;;;6.10;4.47;;;20.30;99.90;;;;;;5070754;28;20458;-66
2022/07/17 07:51:58;;;;;;;7.70;3.87;;;20.40;99.90;;;;;;5071028;28;20441;-68
2022/07/17 07:54:25;;;;;;;4.07;3.60;;;20.50;99.10;;;;;;5071051;28;20562;-67
2022/07/17 07:56:54;;;;;;;3.40;3.07;;;20.60;99.20;;;;;;5071568;28;20446;-68
2022/07/17 07:59:21;;;;;;;4.00;3.27;;;20.80;99.80;;;;;;5071260;28;20503;-68
2022/07/17 08:01:47;;;;;;;3.88;3.30;;;20.80;98.60;;;;;;5070136;28;20440;-66
2022/07/17 08:04:14;;;;;;;4.57;3.57;;;21.00;97.70;;;;;;5071186;28;20228;-68
2022/07/17 08:06:41;;;;;;;4.70;3.87;;;21.10;98.60;;;;;;5071170;28;20443;-68
2022/07/17 08:09:08;;;;;;;4.13;3.07;;;21.20;98.50;;;;;;5071354;28;20913;-66
2022/07/17 08:11:34;;;;;;;4.70;3.40;;;21.30;98.30;;;;;;5070406;28;20446;-70
2022/07/17 08:14:03;;;;;;;3.87;2.97;;;21.30;96.80;;;;;;5068201;28;20495;-68
2022/07/17 08:16:29;;;;;;;5.33;3.30;;;21.40;97.10;;;;;;5066085;28;20449;-68
2022/07/17 08:18:56;;;;;;;4.73;3.17;;;21.50;97.60;;;;;;5061289;28;20714;-66
2022/07/17 08:21:23;;;;;;;4.17;3.30;;;21.60;97.50;;;;;;5067401;28;20443;-63
2022/07/17 08:23:50;;;;;;;7.60;4.20;;;21.70;97.80;;;;;;5065076;28;20828;-66
2022/07/17 08:26:17;;;;;;;5.60;3.80;;;21.90;97.10;;;;;;5064151;28;20446;-69
2022/07/17 08:28:44;;;;;;;3.63;3.23;;;22.00;96.40;;;;;;5071026;28;20447;-66
2022/07/17 08:31:13;;;;;;;4.50;2.73;;;22.10;95.30;;;;;;5069869;28;20453;-67
2022/07/17 08:33:39;;;;;;;3.30;2.80;;;22.20;96.30;;;;;;5070565;28;20462;-64
2022/07/17 08:36:07;;;;;;;3.90;3.50;;;22.30;94.20;;;;;;5065259;28;20438;-66
2022/07/17 08:38:34;;;;;;;4.27;2.93;;;22.30;93.30;;;;;;5069454;28;20439;-66
2022/07/17 08:41:01;;;;;;;3.77;3.10;;;22.30;92.90;;;;;;5069960;28;20447;-64
2022/07/17 08:43:28;;;;;;;3.60;3.07;;;22.30;93.00;;;;;;5070350;28;20443;-66
2022/07/17 08:45:55;;;;;;;4.30;3.33;;;22.40;94.20;;;;;;5070381;28;20436;-66
2022/07/17 08:48:27;;;;;;;5.93;3.10;;;22.50;93.20;;;;;;5070585;28;20505;-66
2022/07/17 08:50:55;;;;;;;3.63;3.00;;;22.70;93.70;;;;;;5064964;28;20451;-68
2022/07/17 08:53:22;;;;;;;5.40;3.47;;;22.80;93.10;;;;;;5065012;28;20534;-67
2022/07/17 08:55:49;;;;;;;3.50;3.20;;;22.80;93.30;;;;;;5068896;28;20486;-70
2022/07/17 08:58:17;;;;;;;4.53;3.33;;;23.00;93.90;;;;;;5064066;28;20438;-67
2022/07/17 09:00:44;;;;;;;3.93;3.00;;;23.20;93.20;;;;;;5062201;28;20833;-66
2022/07/17 09:03:11;;;;;;;3.03;2.60;;;23.30;93.00;;;;;;5067043;28;20435;-68
2022/07/17 09:05:41;;;;;;;4.20;3.40;;;23.40;91.80;;;;;;5069512;28;20455;-67
2022/07/17 09:08:09;;;;;;;3.60;3.03;;;23.60;91.60;;;;;;5064096;28;20435;-68
2022/07/17 09:10:38;;;;;;;2.90;2.60;;;23.70;92.10;;;;;;5069270;28;20442;-68
2022/07/17 09:13:16;;;;;;;3.30;3.00;;;23.80;91.70;;;;;;5065410;28;20937;-64
2022/07/17 09:15:43;;;;;;;5.43;3.33;;;24.00;90.00;;;;;;5061202;28;20490;-65
2022/07/17 09:18:10;;;;;;;4.13;2.97;;;24.00;91.00;;;;;;5051167;28;20451;-67
2022/07/17 09:20:45;;;;;;;3.80;2.50;;;24.10;90.90;;;;;;5049031;28;20444;-66
2022/07/17 09:23:12;;;;;;;4.67;2.80;;;24.20;90.20;;;;;;5063228;28;20515;-67
2022/07/17 09:25:40;;;;;;;5.93;2.53;;;24.40;89.20;;;;;;5063633;28;20455;-66
2022/07/17 09:28:09;;;;;;;3.13;2.67;;;24.50;88.20;;;;;;5063291;28;20438;-65
2022/07/17 09:30:37;;;;;;;4.10;2.60;;;24.70;83.40;;;;;;5059379;28;20446;-70
2022/07/17 09:33:07;;;;;;;3.37;2.80;;;24.80;83.00;;;;;;5065801;28;20482;-64
2022/07/17 09:35:34;;;;;;;3.13;2.57;;;24.90;86.20;;;;;;5068161;28;21176;-66
2022/07/17 09:38:03;;;;;;;3.50;2.50;;;25.10;83.60;;;;;;5063360;28;20481;-64
2022/07/17 09:43:14;;;;;;;3.00;2.70;;;25.40;83.90;;;;;;5068974;28;20472;-66
2022/07/17 09:45:43;;;;;;;3.67;2.70;;;25.30;78.20;;;;;;5069836;28;20501;-67
2022/07/17 09:48:10;;;;;;;4.03;2.67;;;25.10;81.40;;;;;;5069407;28;20449;-67
2022/07/17 09:50:38;;;;;;;3.63;2.73;;;25.30;81.40;;;;;;5069041;28;20505;-69
2022/07/17 09:53:09;;;;;;;3.27;2.20;;;25.50;77.50;;;;;;5069753;28;20451;-69
2022/07/17 09:55:38;;;;;;;3.60;2.90;;;25.70;80.30;;;;;;5069117;28;20482;-66
2022/07/17 09:58:06;;;;;;;3.27;2.10;;;26.00;75.20;;;;;;5069600;28;20447;-67
2022/07/17 10:00:36;;;;;;;2.77;2.03;;;26.50;75.30;;;;;;5069090;28;20980;-69
2022/07/17 10:03:05;;;;;;;2.80;2.13;;;27.30;70.20;;;;;;5069776;28;21051;-68
2022/07/17 10:05:32;;;;;;;4.30;1.97;;;28.40;70.50;;;;;;5069253;28;20600;-65
2022/07/17 10:07:59;;;;;;;2.97;1.90;;;29.40;67.30;;;;;;5069537;28;20451;-67
2022/07/17 10:10:28;;;;;;;3.80;2.07;;;29.10;56.90;;;;;;5068511;28;20443;-65
2022/07/17 10:12:55;;;;;;;3.20;1.67;;;28.70;58.10;;;;;;5069400;28;21011;-64
2022/07/17 10:15:25;;;;;;;2.57;2.00;;;28.60;56.20;;;;;;5068814;28;20483;-68
2022/07/17 10:17:52;;;;;;;4.50;2.00;;;29.00;57.30;;;;;;5069371;28;20447;-68
2022/07/17 10:20:26;;;;;;;3.20;2.10;;;29.80;58.40;;;;;;5068629;28;20761;-68
2022/07/17 10:22:53;;;;;;;2.80;1.70;;;30.70;57.60;;;;;;5069283;28;20949;-67
2022/07/17 10:25:20;;;;;;;3.03;2.10;;;31.70;56.00;;;;;;5069089;28;20467;-68
2022/07/17 10:27:51;;;;;;;3.40;1.90;;;32.30;53.20;;;;;;5069427;28;20447;-67
2022/07/17 10:30:26;;;;;;;3.23;1.90;;;32.50;53.40;;;;;;5068706;28;20458;-69
2022/07/17 10:32:55;;;;;;;3.00;1.87;;;32.90;52.70;;;;;;5069403;28;20447;-67
2022/07/17 10:35:22;;;;;;;2.77;1.87;;;32.30;48.50;;;;;;5068691;28;20487;-67
2022/07/17 10:37:49;;;;;;;2.40;1.80;;;31.50;50.40;;;;;;5069343;28;20888;-68
2022/07/17 10:40:20;;;;;;;3.93;2.27;;;31.60;52.70;;;;;;5068603;28;20451;-67
2022/07/17 10:42:56;;;;;;;2.27;1.80;;;31.60;54.10;;;;;;5069271;28;20447;-69
2022/07/17 10:45:26;;;;;;;2.70;2.00;;;31.80;50.50;;;;;;5068800;28;20835;-69
2022/07/17 10:47:58;;;;;;;3.53;1.90;;;31.10;49.60;;;;;;5069015;28;20446;-68
2022/07/17 10:50:29;;;;;;;2.67;2.13;;;31.00;53.90;;;;;;5068318;28;20853;-65
2022/07/17 10:53:16;;;;;;;3.00;2.10;;;31.80;51.50;;;;;;5069242;28;20447;-66
2022/07/17 10:55:45;;;;;;;2.20;1.60;;;32.70;48.70;;;;;;5068630;28;20899;-68
2022/07/17 10:58:18;;;;;;;2.30;1.90;;;33.10;47.80;;;;;;5069192;28;20454;-69
2022/07/17 11:00:56;;;;;;;2.43;1.73;;;33.50;48.70;;;;;;5070084;28;20443;-67
2022/07/17 11:03:22;;;;;;;2.70;2.23;;;33.90;49.40;;;;;;5072620;28;20455;-67
2022/07/17 11:05:49;;;;;;;2.70;1.70;;;33.10;44.40;;;;;;5072105;28;20447;-68
2022/07/17 11:08:16;;;;;;;2.87;2.10;;;31.80;45.70;;;;;;5072509;28;20451;-68
2022/07/17 11:10:43;;;;;;;6.27;3.00;;;30.90;46.20;;;;;;5071432;28;20447;-68
2022/07/17 11:13:12;;;;;;;2.87;1.63;;;31.30;48.20;;;;;;5072461;28;20447;-66
2022/07/17 11:15:42;;;;;;;5.60;2.20;;;31.60;46.60;;;;;;5072324;28;20486;-67
2022/07/17 11:18:14;;;;;;;11.20;2.50;;;31.00;47.30;;;;;;5072688;28;20917;-67
2022/07/17 11:20:52;;;;;;;4.90;2.20;;;31.10;49.90;;;;;;5071936;28;20457;-67
2022/07/17 11:23:19;;;;;;;2.40;2.20;;;31.20;49.00;;;;;;5072821;28;20469;-68
2022/07/17 11:25:57;;;;;;;3.67;2.40;;;31.60;48.20;;;;;;5072199;28;20439;-67
2022/07/17 11:28:36;;;;;;;3.00;2.17;;;31.80;46.40;;;;;;5072493;28;20450;-68
2022/07/17 11:31:16;;;;;;;3.00;1.90;;;31.90;45.80;;;;;;5071728;28;20439;-69
2022/07/17 11:33:51;;;;;;;3.27;1.93;;;31.60;45.30;;;;;;5072309;28;20455;-68
2022/07/17 11:36:22;;;;;;;3.60;1.90;;;30.70;46.30;;;;;;5071829;28;20482;-67
2022/07/17 11:38:49;;;;;;;2.70;1.87;;;30.10;46.60;;;;;;5072418;28;20447;-66
2022/07/17 11:41:17;;;;;;;5.17;2.43;;;30.00;46.40;;;;;;5071511;28;20443;-63
2022/07/17 11:43:44;;;;;;;2.80;1.83;;;30.50;48.60;;;;;;5071972;28;20462;-63
2022/07/17 11:46:13;;;;;;;2.90;2.10;;;31.40;45.00;;;;;;5071436;28;20487;-62
2022/07/17 11:48:42;;;;;;;3.13;2.10;;;30.90;44.80;;;;;;5072275;28;20965;-63
2022/07/17 11:51:08;;;;;;;3.47;1.90;;;30.80;44.10;;;;;;5070989;28;20485;-67
2022/07/17 11:53:37;;;;;;;3.07;2.37;;;31.50;45.10;;;;;;5071865;28;20447;-67
2022/07/17 11:56:05;;;;;;;2.40;2.07;;;32.20;43.00;;;;;;5071541;28;20494;-68
2022/07/17 11:58:43;;;;;;;2.53;1.87;;;32.00;41.60;;;;;;5071589;28;20451;-67
2022/07/17 12:01:10;;;;;;;2.50;1.80;;;32.40;45.30;;;;;;5065982;28;20537;-67
2022/07/17 12:03:38;;;;;;;5.33;1.87;;;32.80;44.80;;;;;;5070972;28;20447;-67
2022/07/17 12:06:05;;;;;;;3.20;1.77;;;33.50;42.30;;;;;;5071129;28;20565;-68
2022/07/17 12:08:32;;;;;;;3.37;2.20;;;33.10;40.50;;;;;;5071436;28;20447;-67
2022/07/17 12:11:05;;;;;;;4.10;2.10;;;32.20;42.00;;;;;;5070174;28;20524;-68
2022/07/17 12:13:46;;;;;;;2.97;2.30;;;31.60;45.30;;;;;;5071569;28;20447;-67
2022/07/17 12:16:28;;;;;;;2.83;2.30;;;32.20;43.20;;;;;;5070957;28;21006;-68
2022/07/17 12:19:09;;;;;;;2.40;1.90;;;32.00;41.40;;;;;;5071287;28;20457;-66
2022/07/17 12:21:53;;;;;;;2.77;2.03;;;31.70;41.20;;;;;;5070401;28;20952;-67
2022/07/17 12:24:22;;;;;;;2.80;1.70;;;31.90;41.80;;;;;;5070685;28;20463;-67
2022/07/17 12:26:49;;;;;;;2.43;1.83;;;32.20;40.90;;;;;;5071136;28;20439;-67
2022/07/17 12:29:16;;;;;;;3.00;2.20;;;32.30;40.60;;;;;;5070896;28;20963;-67
2022/07/17 12:31:43;;;;;;;12.90;2.27;;;33.10;42.20;;;;;;5069471;28;20451;-69
2022/07/17 12:34:12;;;;;;;4.57;1.97;;;34.00;42.30;;;;;;5071027;28;20473;-67
2022/07/17 12:36:38;;;;;;;2.40;2.00;;;34.90;42.40;;;;;;5070698;28;20489;-68
2022/07/17 12:39:05;;;;;;;10.23;2.10;;;35.60;42.20;;;;;;5070846;28;20454;-66
2022/07/17 12:41:32;;;;;;;2.97;2.30;;;36.20;44.30;;;;;;5069587;28;20455;-67
2022/07/17 12:43:59;;;;;;;4.80;1.90;;;36.30;38.30;;;;;;5070644;28;20467;-68
2022/07/17 12:46:26;;;;;;;2.60;1.80;;;36.10;39.50;;;;;;5070295;28;20451;-69
2022/07/17 12:48:53;;;;;;;2.30;1.70;;;35.00;38.00;;;;;;5071096;28;20447;-67
2022/07/17 12:51:21;;;;;;;3.53;1.70;;;34.10;38.80;;;;;;5070020;28;20455;-67